Terminal Aerodrome Forecast
Issued by NWS

Home | Current Version | Previous Version | Text Only | Print | Product List | Glossary On
Versions: 1 2 3 4 5 6 7 8 9 10 11 12 13 14 15 16 17 18 19 20 21 22 23 24 25 26 27 28 29 30 31 32 33 34 35 36 37 38 39 40 41 42 43
000
FTUS45 KPSR 020100 AAA
TAFPHX
TAF AMD
KPHX 020152Z 0202/0224 11003KT P6SM SKC
     FM021200 09004KT 5SM BR SKC
     FM021300 10004KT 2SM BR FEW005
     FM021500 11005KT P6SM SCT250
     FM022200 25004KT P6SM SCT250=

USA.gov is the U.S. government's official web portal to all federal, state and local government web resources and services.